Main page
METAR-TAF:

METAR-TAF

Airports :

St. Gallen–Altenrhein Airport

St. Gallen, Switzerland

latitude: 47-29-06N, longitude: 009-33-43E, elevation: 398 m

Current weather observation

The report was made 34 minutes ago, at 10:50 UTC
Wind 2 kt from variable directions
Temperature -1°C
Humidity 80%
Pressure 1011 hPa
Visibility: 8000 m
Broken clouds at a height of 1500 ft

METAR: LSZR 221050Z VRB02KT 8000 BKN015 M01/M04 Q1011 NOSIG RMK G

Time: 12:24 (11:24 UTC)

Forecast

The report was made 2 hours and 59 minutes ago, at 08:25 UTC
Forecast valid from 22 at 09 UTC to 22 at 18 UTC
Wind 3 kt from variable directions
Visibility: 7000 m
Broken clouds at a height of 1700 ft
Becoming
from 22 at 09 UTC to 22 at 12 UTC
Scattered clouds at a height of 2000 ft

TAF: LSZR 220825Z 2209/2218 VRB03KT 7000 BKN017 BECMG 2209/2212 SCT020

Weather observations and forecasts of more than 4000 airports (METAR and TAF reports).

The available stations are represented by yellow and red dots on the map.

Hover mouse over dot to see the name of the station.

Then click to see weather observations and forecasts.

To change the map : click on the green buttons with a black cross to zoom in, on the green button with a dash to zoom out, or on the green arrows for adjacent maps.


METAR-TAF: